Portageville, NY (14536)

1:59 PM EDT on September 05, 2015 (GMT -0400)
Southview Farms | | Change Station
CLOSE
Current Station
Personal Weather Station
Location: Castile, NY
Elevation: 1417 ft
Nearby Weather Stations

Elev 1417 ft 42.64 °N, 78.01 °W | Updated 4 minutes ago

Partly Cloudy
Partly Cloudy
81.9 °F
Feels Like 86 °F
N
2.0
Wind Variable Wind from WSW

Today
High -- | Low -- °F
--% Chance of Precip.
Yesterday
High -- | Low -- °F
Precip. -- in
6:41 AM 7:40 PM
Waning Gibbous, 46% visible
Pressure 30.19 in
Visibility 10.0 miles
Clouds Scattered Clouds 4200 ft
Heat Index 86 °F
Dew Point 70 °F
Humidity 68%
Rainfall 0.00 in
Snow Depth Not available.
UV 6 out of 12
Pollen 10.50 out of 12
Air Quality Not available.
Flu Activity Not available.
METAR KDSV 051754Z AUTO 14009KT 10SM SCT042 31/20 A3017 RMK AO2 SLP221 T03060200 10306 20200 58018
Pressure 30.19 in
Visibility 10.0 miles
Clouds Scattered Clouds 4200 ft
Heat Index 86 °F
Dew Point 70 °F
Humidity 68%
Rainfall 0.00 in
Snow Depth Not available.
UV 6 out of 12
Pollen 10.50 out of 12
Air Quality Not available.
Flu Activity Not available.
METAR KDSV 051754Z AUTO 14009KT 10SM SCT042 31/20 A3017 RMK AO2 SLP221 T03060200 10306 20200 58018

10-Day Weather Forecast

×

Almanac

Astronomy

Sep. 05, 2015 Rise Set
Actual Time
Civil Twilight
Nautical Twilight
Astronomical Twilight
Moon
Length of Visible Light
Length of Day
Tomorrow will be .
, % of the Moon is Illuminated

Today's Extremes

State Highs State Lows

Community

WunderPhotos

Upload Photos

1,852,508 photos uploaded!

WunderBlogs® & News

Nearby

Air Quality

  Air Quality AQ Index Pollutant
Not available.

Snow Depth

Station Depth Elevation

Earthquake Activity

City Distance Mag. Time & Date
Minimum magnitude displayed is 2.5.

Coastal Water Temperatures

Place Temperature

Stations

Nearby Weather Stations

Station Location Temp. Windchill Dew Point Humidity Wind Precip. Elev Updated Type